Time;durP1;ratioP1;P1;durP2;ratioP2;P2;SDS_P1;SDS_P2;PMS_P1;PMS_P2;Temp;Humidity;BMP_temperature;BMP_pressure;BME280_temperature;BME280_humidity;BME280_pressure;Samples;Min_cycle;Max_cycle;Signal;HPM_P1;HPM_P2
2023/10/03 00:00:34;;;;;;;21.00;10.00;;;;;;;13.73;83.46;100592.89;130356;1257;115327;-69
2023/10/03 00:03:56;;;;;;;16.40;9.20;;;;;;;13.68;83.83;100593.16;130358;1254;114647;-70
2023/10/03 00:06:58;;;;;;;20.30;10.10;;;;;;;13.64;83.85;100588.55;130311;1256;114839;-69
2023/10/03 00:10:01;;;;;;;18.80;10.70;;;;;;;13.60;83.95;100583.73;130552;1254;114878;-69
2023/10/03 00:13:07;;;;;;;22.70;10.90;;;;;;;13.57;84.13;100579.63;130374;1275;114826;-69
2023/10/03 00:16:09;;;;;;;19.20;10.00;;;;;;;13.53;84.23;100577.67;130369;1256;129252;-69
2023/10/03 00:19:12;;;;;;;17.90;9.60;;;;;;;13.49;84.12;100572.85;130306;1254;114850;-69
2023/10/03 00:22:14;;;;;;;16.50;9.40;;;;;;;13.46;84.44;100570.35;130392;1268;115352;-69
2023/10/03 00:25:23;;;;;;;19.90;11.00;;;;;;;13.43;84.49;100563.90;130276;1256;114847;-69
2023/10/03 00:28:33;;;;;;;19.60;10.90;;;;;;;13.37;84.37;100559.48;130543;1254;114731;-70
2023/10/03 00:31:35;;;;;;;17.90;9.40;;;;;;;13.33;84.30;100557.94;130277;1257;115351;-69
2023/10/03 00:34:40;;;;;;;20.20;10.20;;;;;;;13.28;84.38;100553.23;130297;1256;114719;-69
2023/10/03 00:37:46;;;;;;;15.20;9.80;;;;;;;13.24;84.53;100556.17;130278;1258;114639;-69
2023/10/03 00:40:49;;;;;;;15.30;9.70;;;;;;;13.19;84.51;100552.67;130309;1256;114830;-69
2023/10/03 00:43:52;;;;;;;17.40;10.00;;;;;;;13.14;84.61;100555.08;130403;1254;114740;-69
2023/10/03 00:46:57;;;;;;;14.40;10.10;;;;;;;13.10;84.69;100555.33;130374;1256;115253;-71
2023/10/03 00:50:00;;;;;;;19.30;9.80;;;;;;;13.05;84.76;100550.23;130228;1253;127949;-70
2023/10/03 00:53:10;;;;;;;15.80;9.50;;;;;;;12.99;84.87;100542.27;130224;1259;115170;-68
2023/10/03 00:56:15;;;;;;;16.00;9.30;;;;;;;12.95;84.75;100537.34;130248;1253;114753;-69
2023/10/03 00:59:17;;;;;;;17.80;10.00;;;;;;;12.89;84.94;100531.69;130330;1253;115254;-69
2023/10/03 01:02:21;;;;;;;20.60;10.80;;;;;;;12.86;84.87;100527.23;130434;1258;114844;-69
2023/10/03 01:05:23;;;;;;;17.10;9.90;;;;;;;12.82;85.05;100521.56;130169;1259;114769;-69
2023/10/03 01:08:26;;;;;;;19.90;9.80;;;;;;;12.79;85.20;100521.36;130299;1254;114754;-70
2023/10/03 01:11:29;;;;;;;14.60;9.10;;;;;;;12.75;85.34;100519.58;130339;1257;114773;-70
2023/10/03 01:14:34;;;;;;;16.50;10.20;;;;;;;12.73;85.74;100519.16;130377;1257;115046;-70
2023/10/03 01:17:37;;;;;;;15.80;9.40;;;;;;;12.72;85.98;100514.70;130231;1254;114729;-71
2023/10/03 01:20:48;;;;;;;19.40;9.80;;;;;;;12.72;85.99;100520.48;130250;1258;114716;-71
2023/10/03 01:23:50;;;;;;;15.50;9.70;;;;;;;12.71;86.24;100518.56;130394;1269;128237;-72
2023/10/03 01:26:53;;;;;;;17.40;9.90;;;;;;;12.69;85.99;100517.19;130195;1253;114839;-69
2023/10/03 01:29:55;;;;;;;17.40;10.30;;;;;;;12.67;86.19;100514.65;130380;1254;114716;-68
2023/10/03 01:32:58;;;;;;;17.60;8.90;;;;;;;12.64;86.09;100513.38;130310;1260;114696;-68
2023/10/03 01:36:01;;;;;;;19.90;10.90;;;;;;;12.61;86.09;100509.98;130187;1257;115394;-70
2023/10/03 01:39:03;;;;;;;21.40;10.80;;;;;;;12.58;86.46;100505.63;130242;1259;114728;-70
2023/10/03 01:42:07;;;;;;;20.30;10.80;;;;;;;12.56;86.40;100509.51;130138;1266;114825;-69
2023/10/03 01:45:09;;;;;;;16.70;9.60;;;;;;;12.53;86.28;100507.17;130312;1254;114757;-69
2023/10/03 01:48:12;;;;;;;17.50;9.30;;;;;;;12.48;86.04;100506.70;130391;1253;114763;-69
2023/10/03 01:51:16;;;;;;;19.40;10.80;;;;;;;12.44;86.02;100502.28;130241;1253;115177;-69
2023/10/03 01:54:18;;;;;;;19.30;11.30;;;;;;;12.41;86.53;100497.79;130282;1258;114746;-69
2023/10/03 01:57:20;;;;;;;20.30;10.60;;;;;;;12.38;86.45;100493.44;130245;1257;115110;-69
2023/10/03 02:00:26;;;;;;;18.90;11.50;;;;;;;12.36;86.69;100485.16;130252;1257;114877;-69
2023/10/03 02:03:29;;;;;;;19.60;9.90;;;;;;;12.33;86.64;100483.33;130138;1253;127726;-69
2023/10/03 02:06:31;;;;;;;17.80;9.40;;;;;;;12.29;86.53;100478.88;130197;1259;114763;-70
2023/10/03 02:09:34;;;;;;;21.80;10.70;;;;;;;12.26;86.67;100481.02;130233;1258;114711;-70
2023/10/03 02:12:37;;;;;;;19.20;11.00;;;;;;;12.22;86.86;100480.54;130350;1257;114785;-70
2023/10/03 02:15:39;;;;;;;20.30;10.10;;;;;;;12.18;86.69;100478.57;130345;1259;114744;-69
2023/10/03 02:18:42;;;;;;;19.90;10.90;;;;;;;12.15;86.77;100468.52;130249;1254;114817;-70
2023/10/03 02:21:46;;;;;;;20.30;12.00;;;;;;;12.12;86.93;100460.83;130180;1259;114713;-69
2023/10/03 02:24:48;;;;;;;19.30;11.30;;;;;;;12.09;87.19;100454.89;130357;1257;114769;-70
2023/10/03 02:27:53;;;;;;;18.50;11.20;;;;;;;12.07;87.57;100451.81;130323;1276;115551;-68
2023/10/03 02:30:56;;;;;;;16.30;10.30;;;;;;;12.07;88.08;100443.04;130052;1254;115096;-70
2023/10/03 02:34:01;;;;;;;17.00;11.30;;;;;;;12.07;87.99;100440.89;130209;1262;114931;-68
2023/10/03 02:37:04;;;;;;;;;;;;;;;12.07;88.08;100437.50;130294;1258;128231;-69
2023/10/03 02:40:07;;;;;;;16.60;10.20;;;;;;;12.05;88.20;100437.05;130325;1257;114956;-68
2023/10/03 02:43:13;;;;;;;16.00;10.50;;;;;;;12.02;87.91;100435.77;130320;1258;114810;-70
2023/10/03 02:46:15;;;;;;;18.40;10.60;;;;;;;11.99;88.06;100427.67;130322;1253;114693;-73
2023/10/03 02:49:18;;;;;;;19.20;10.90;;;;;;;11.97;88.56;100429.52;130218;1257;115235;-70
2023/10/03 02:52:21;;;;;;;19.50;10.80;;;;;;;11.96;88.61;100423.86;130236;1254;114947;-69
2023/10/03 02:55:23;;;;;;;18.70;11.70;;;;;;;11.95;88.45;100420.34;130402;1254;115379;-74
2023/10/03 02:58:25;;;;;;;20.20;11.40;;;;;;;11.93;88.51;100417.73;130266;1270;114708;-73
2023/10/03 03:01:27;;;;;;;19.10;11.30;;;;;;;11.91;88.61;100414.63;130326;1257;114823;-69
2023/10/03 03:04:29;;;;;;;21.60;11.50;;;;;;;11.92;88.94;100407.11;130390;1256;114744;-69
2023/10/03 03:07:32;;;;;;;19.60;11.10;;;;;;;11.91;89.01;100405.88;130394;1257;115413;-71
2023/10/03 03:10:34;;;;;;;18.70;11.70;;;;;;;11.92;89.44;100403.84;130398;1257;114820;-70
2023/10/03 03:13:36;;;;;;;20.90;10.90;;;;;;;11.92;89.78;100398.27;130438;1254;114747;-69
2023/10/03 03:16:40;;;;;;;17.60;11.60;;;;;;;11.92;89.60;100396.66;130359;1254;126505;-69
2023/10/03 03:19:44;;;;;;;16.60;10.80;;;;;;;11.91;89.82;100396.36;130303;1259;115186;-69
2023/10/03 03:22:50;;;;;;;18.90;11.30;;;;;;;11.90;89.82;100392.88;130489;1254;114766;-70
2023/10/03 03:26:02;;;;;;;22.50;11.20;;;;;;;11.88;89.50;100390.63;130320;1256;114715;-69
2023/10/03 03:29:20;;;;;;;19.70;11.00;;;;;;;11.85;89.67;100387.73;130036;1254;114747;-69
2023/10/03 03:32:24;;;;;;;20.80;10.70;;;;;;;11.81;89.34;100385.80;130095;1259;129307;-71
2023/10/03 03:35:26;;;;;;;18.40;11.00;;;;;;;11.78;89.33;100384.56;130271;1256;115212;-69
2023/10/03 03:38:31;;;;;;;17.60;11.40;;;;;;;11.75;89.54;100380.41;130320;1254;114813;-69
2023/10/03 03:41:34;;;;;;;;;;;;;;;11.72;89.59;100381.30;130329;1254;114831;-70
2023/10/03 03:44:36;;;;;;;20.80;11.10;;;;;;;11.67;89.56;100372.74;130411;1256;115148;-69
2023/10/03 03:47:39;;;;;;;19.30;12.00;;;;;;;11.64;89.66;100367.96;130272;1258;114829;-69
2023/10/03 03:50:41;;;;;;;19.80;11.90;;;;;;;11.61;89.34;100361.98;130243;1259;115338;-72
2023/10/03 03:53:44;;;;;;;19.80;10.70;;;;;;;11.60;90.38;100361.86;130305;1259;114837;-69
2023/10/03 03:56:46;;;;;;;20.90;10.30;;;;;;;11.60;90.39;100363.09;130198;1259;114823;-68
2023/10/03 03:59:48;;;;;;;20.00;11.00;;;;;;;11.62;90.87;100361.95;130266;1267;114756;-69
2023/10/03 04:02:50;;;;;;;24.50;11.70;;;;;;;11.64;91.02;100362.21;130254;1259;114720;-68
2023/10/03 04:05:52;;;;;;;19.60;11.40;;;;;;;11.65;91.00;100361.45;129932;1260;115331;-68
2023/10/03 04:08:54;;;;;;;18.80;10.60;;;;;;;11.64;90.37;100361.48;130325;1269;114849;-68
2023/10/03 04:11:59;;;;;;;16.80;10.00;;;;;;;11.63;90.79;100355.83;130412;1257;114856;-68
2023/10/03 04:15:01;;;;;;;18.50;11.00;;;;;;;11.60;90.22;100356.15;130352;1257;115118;-68
2023/10/03 04:18:04;;;;;;;21.60;10.80;;;;;;;11.58;90.57;100350.00;130414;1257;114744;-69
2023/10/03 04:21:07;;;;;;;19.30;10.70;;;;;;;11.57;91.07;100349.53;130467;1259;114788;-68
2023/10/03 04:24:11;;;;;;;23.20;11.30;;;;;;;11.57;91.14;100346.31;130207;1254;114843;-69
2023/10/03 04:27:13;;;;;;;18.90;10.20;;;;;;;11.56;90.58;100338.86;130232;1276;114849;-67
2023/10/03 04:30:16;;;;;;;23.60;11.10;;;;;;;11.53;90.66;100338.98;130363;1253;115410;-69
2023/10/03 04:33:20;;;;;;;18.50;11.10;;;;;;;11.50;90.17;100335.05;130297;1259;115234;-68
2023/10/03 04:36:25;;;;;;;;;;;;;;;11.47;90.54;100331.80;130264;1263;115492;-70
2023/10/03 04:39:28;;;;;;;19.70;10.70;;;;;;;11.42;90.51;100326.70;130337;1269;114894;-69
2023/10/03 04:42:30;;;;;;;21.10;11.40;;;;;;;11.38;90.43;100331.19;130110;1260;114808;-68
2023/10/03 04:45:35;;;;;;;19.90;11.10;;;;;;;11.36;90.86;100326.81;130335;1259;114806;-68
2023/10/03 04:48:38;;;;;;;21.10;10.00;;;;;;;11.35;90.70;100324.92;130387;1258;115001;-68
2023/10/03 04:51:40;;;;;;;21.30;10.50;;;;;;;11.34;91.05;100317.10;130492;1275;114830;-68
2023/10/03 04:54:42;;;;;;;15.40;10.00;;;;;;;11.34;91.32;100316.90;130436;1256;114766;-69
2023/10/03 04:57:49;;;;;;;21.10;10.50;;;;;;;11.35;91.70;100311.34;130353;1256;114741;-69
2023/10/03 05:00:52;;;;;;;22.40;11.50;;;;;;;11.35;91.70;100311.13;130388;1260;115001;-71
2023/10/03 05:03:54;;;;;;;18.10;10.40;;;;;;;11.38;92.02;100306.34;130534;1272;114645;-68
2023/10/03 05:06:56;;;;;;;15.70;9.80;;;;;;;11.41;92.68;100301.14;130454;1254;115602;-69
2023/10/03 05:09:58;;;;;;;19.20;10.50;;;;;;;11.45;92.80;100301.31;130490;1254;115244;-70
2023/10/03 05:13:00;;;;;;;19.20;10.60;;;;;;;11.49;92.30;100299.50;130444;1256;114708;-69
2023/10/03 05:16:03;;;;;;;19.10;10.10;;;;;;;11.52;92.56;100297.35;130585;1253;114715;-69
2023/10/03 05:19:06;;;;;;;17.60;11.00;;;;;;;11.57;92.89;100292.65;130315;1259;115243;-69
2023/10/03 05:22:11;;;;;;;19.90;11.00;;;;;;;11.61;92.59;100285.98;130241;1267;114637;-69
2023/10/03 05:25:18;;;;;;;20.40;11.40;;;;;;;11.66;93.09;100283.04;130035;1254;128056;-67
2023/10/03 05:28:21;;;;;;;17.60;10.70;;;;;;;11.72;93.00;100285.58;129955;1275;116563;-72
2023/10/03 05:31:23;;;;;;;20.10;10.30;;;;;;;11.77;93.01;100278.32;128001;1256;3064828;-68
2023/10/03 05:34:25;;;;;;;18.40;11.10;;;;;;;11.82;93.06;100277.11;130303;1267;114824;-68
2023/10/03 05:37:27;;;;;;;20.50;11.30;;;;;;;11.88;93.05;100276.47;130480;1254;114723;-71
2023/10/03 05:40:30;;;;;;;18.90;11.30;;;;;;;11.94;92.91;100268.99;130276;1257;115086;-69
2023/10/03 05:43:33;;;;;;;18.60;10.60;;;;;;;12.00;92.94;100268.31;130453;1269;114810;-69
2023/10/03 05:46:36;;;;;;;19.20;11.30;;;;;;;12.08;93.01;100264.33;130252;1258;114843;-69
2023/10/03 05:49:39;;;;;;;23.40;11.50;;;;;;;12.15;93.35;100266.79;130278;1256;114817;-67
2023/10/03 05:52:44;;;;;;;25.80;12.20;;;;;;;12.23;93.31;100261.85;130426;1256;115324;-67
2023/10/03 05:55:46;;;;;;;22.90;11.60;;;;;;;12.32;93.26;100265.42;130359;1257;115095;-67
2023/10/03 05:58:48;;;;;;;25.10;11.10;;;;;;;12.41;93.32;100261.33;130372;1254;114789;-68
2023/10/03 06:01:50;;;;;;;20.80;11.50;;;;;;;12.53;93.53;100256.36;130378;1258;115103;-71
2023/10/03 06:04:53;;;;;;;19.40;10.90;;;;;;;12.66;93.49;100255.59;130275;1276;129237;-68
2023/10/03 06:07:55;;;;;;;14.60;10.10;;;;;;;12.82;93.36;100252.49;130340;1276;115179;-67
2023/10/03 06:11:00;;;;;;;19.90;10.90;;;;;;;13.03;93.30;100246.38;130227;1260;114741;-67
2023/10/03 06:14:03;;;;;;;24.00;10.50;;;;;;;13.25;93.35;100241.69;130379;1256;114843;-67
2023/10/03 06:17:09;;;;;;;22.00;9.80;;;;;;;13.47;93.34;100242.46;130386;1276;114715;-68
2023/10/03 06:20:15;;;;;;;24.40;10.90;;;;;;;13.67;93.22;100242.86;130264;1271;129158;-68
2023/10/03 06:23:18;;;;;;;14.40;8.50;;;;;;;13.88;93.02;100240.27;130052;1253;115259;-66
2023/10/03 06:26:20;;;;;;;20.10;9.70;;;;;;;14.09;92.81;100243.63;130034;1259;115237;-67
2023/10/03 06:29:23;;;;;;;17.20;10.20;;;;;;;14.28;92.33;100247.06;130246;1260;115193;-62
2023/10/03 06:32:25;;;;;;;19.30;9.60;;;;;;;14.51;92.48;100249.08;130252;1253;114956;-66
2023/10/03 06:35:27;;;;;;;16.20;9.70;;;;;;;14.75;92.10;100244.11;129579;1269;114677;-62
2023/10/03 06:38:29;;;;;;;15.60;8.90;;;;;;;15.01;91.89;100241.66;130356;1257;114720;-67
2023/10/03 06:41:31;;;;;;;15.60;9.60;;;;;;;15.30;91.70;100235.69;130552;1254;114722;-63
2023/10/03 06:44:36;;;;;;;17.30;9.30;;;;;;;15.57;91.38;100227.10;130100;1259;116563;-62
2023/10/03 06:47:38;;;;;;;24.50;10.00;;;;;;;15.84;90.98;100221.40;130165;1261;114890;-62
2023/10/03 06:50:42;;;;;;;17.90;9.50;;;;;;;16.12;90.47;100214.34;130514;1257;114830;-65
2023/10/03 06:53:48;;;;;;;17.30;9.00;;;;;;;16.38;90.11;100206.27;130196;1259;115215;-65
2023/10/03 06:56:50;;;;;;;15.50;9.50;;;;;;;16.67;89.52;100205.55;130187;1256;127987;-66
2023/10/03 06:59:53;;;;;;;20.00;10.60;;;;;;;16.95;89.24;100201.77;130365;1260;114755;-63
2023/10/03 07:02:56;;;;;;;21.10;10.30;;;;;;;17.23;88.83;100199.42;130560;1254;115154;-73
2023/10/03 07:05:58;;;;;;;25.90;11.60;;;;;;;17.54;88.78;100201.52;130487;1257;114736;-65
2023/10/03 07:09:05;;;;;;;24.10;11.80;;;;;;;17.84;88.04;100198.13;130371;1259;114690;-65
2023/10/03 07:12:08;;;;;;;18.90;11.10;;;;;;;18.19;87.70;100193.38;130560;1254;114725;-65
2023/10/03 07:15:11;;;;;;;18.80;10.30;;;;;;;18.52;87.11;100190.04;130373;1253;115439;-64
2023/10/03 07:18:14;;;;;;;19.10;10.50;;;;;;;18.90;86.66;100187.56;130459;1259;114664;-71
2023/10/03 07:21:16;;;;;;;22.60;11.70;;;;;;;19.28;86.03;100187.92;130371;1257;114882;-65
2023/10/03 07:24:20;;;;;;;19.10;10.50;;;;;;;19.66;85.56;100182.54;130350;1275;115170;-65
2023/10/03 07:27:22;;;;;;;17.80;10.00;;;;;;;20.08;84.30;100176.13;130229;1256;114745;-65
2023/10/03 07:30:25;;;;;;;17.30;9.80;;;;;;;20.49;83.89;100173.59;130373;1260;115229;-64
2023/10/03 07:33:28;;;;;;;18.60;8.60;;;;;;;20.93;83.24;100166.63;130412;1256;114730;-63
2023/10/03 07:36:30;;;;;;;14.20;8.20;;;;;;;21.38;82.02;100166.13;130579;1253;114747;-63
2023/10/03 07:39:32;;;;;;;15.50;8.40;;;;;;;21.83;80.96;100167.17;130391;1258;115244;-64
2023/10/03 07:42:33;;;;;;;14.00;7.90;;;;;;;22.28;80.13;100161.25;130561;1257;114795;-78
2023/10/03 07:45:37;;;;;;;14.00;7.40;;;;;;;22.74;78.98;100160.10;130520;1256;115161;-64
2023/10/03 07:48:42;;;;;;;12.90;8.50;;;;;;;23.17;77.76;100161.75;130513;1259;116393;-65
2023/10/03 07:51:45;;;;;;;12.40;8.00;;;;;;;23.57;76.80;100160.91;130202;1264;114830;-64
2023/10/03 07:54:55;;;;;;;14.70;7.50;;;;;;;23.95;75.95;100158.32;130478;1259;114705;-64
2023/10/03 07:57:58;;;;;;;13.30;7.10;;;;;;;24.31;75.22;100156.67;130404;1254;115182;-64
2023/10/03 08:01:00;;;;;;;15.00;7.70;;;;;;;24.63;74.38;100146.17;130594;1256;114737;-64
2023/10/03 08:04:07;;;;;;;15.20;8.00;;;;;;;24.88;73.15;100148.20;130465;1257;117436;-63
2023/10/03 08:07:19;;;;;;;13.20;7.50;;;;;;;25.01;71.67;100150.30;130206;1260;115008;-64
2023/10/03 08:10:21;;;;;;;12.60;7.90;;;;;;;25.10;71.04;100154.98;130398;1265;120388;-68
2023/10/03 08:13:23;;;;;;;13.70;7.70;;;;;;;25.12;69.85;100158.64;130392;1254;114669;-64
2023/10/03 08:16:27;;;;;;;18.00;8.20;;;;;;;25.07;69.60;100153.34;130403;1257;115163;-63
2023/10/03 08:19:29;;;;;;;13.00;7.60;;;;;;;25.01;69.40;100148.56;130461;1253;114700;-65
2023/10/03 08:22:31;;;;;;;16.20;7.50;;;;;;;24.95;68.88;100147.37;130521;1260;115259;-65
2023/10/03 08:25:35;;;;;;;14.10;8.10;;;;;;;24.89;68.62;100145.09;130639;1257;114720;-64
2023/10/03 08:28:38;;;;;;;11.50;7.60;;;;;;;24.83;68.39;100142.32;130547;1275;114811;-74
2023/10/03 08:31:40;;;;;;;12.60;7.40;;;;;;;24.77;68.18;100133.45;130533;1256;119254;-76
2023/10/03 08:34:44;;;;;;;11.50;6.80;;;;;;;24.74;67.75;100131.13;130417;1275;114725;-65
2023/10/03 08:37:46;;;;;;;17.10;8.30;;;;;;;24.71;67.62;100124.64;130477;1256;114975;-63
2023/10/03 08:40:50;;;;;;;15.30;7.20;;;;;;;24.72;67.58;100116.65;130485;1266;114780;-63
2023/10/03 08:43:56;;;;;;;16.60;7.30;;;;;;;24.74;67.17;100115.31;130470;1257;114789;-66
2023/10/03 08:46:59;;;;;;;12.40;7.10;;;;;;;24.75;66.50;100111.80;130396;1260;114748;-65
2023/10/03 08:50:14;;;;;;;18.20;7.70;;;;;;;24.77;66.39;100108.14;130414;1264;114814;-70
2023/10/03 08:53:16;;;;;;;13.60;7.90;;;;;;;24.80;66.24;100109.45;130218;1259;114830;-67
2023/10/03 08:56:19;;;;;;;13.70;6.90;;;;;;;24.82;65.83;100106.94;130473;1259;114795;-63
2023/10/03 08:59:21;;;;;;;15.00;7.60;;;;;;;24.85;65.64;100106.96;130359;1255;114732;-68
2023/10/03 09:02:24;;;;;;;13.50;7.70;;;;;;;24.90;65.13;100100.59;130378;1254;115396;-63
2023/10/03 09:05:26;;;;;;;18.60;7.90;;;;;;;24.97;64.64;100100.37;130022;1260;114738;-64
2023/10/03 09:08:29;;;;;;;13.90;7.40;;;;;;;25.03;64.18;100098.36;130279;1260;114847;-66
2023/10/03 09:11:31;;;;;;;14.90;7.60;;;;;;;25.10;63.67;100090.09;130260;1258;114835;-65
2023/10/03 09:14:36;;;;;;;13.10;7.80;;;;;;;25.19;63.49;100087.85;130054;1267;114744;-64
2023/10/03 09:17:38;;;;;;;15.00;7.50;;;;;;;25.26;62.93;100078.95;130601;1256;114724;-72
2023/10/03 09:20:42;;;;;;;14.40;7.20;;;;;;;25.34;63.05;100078.02;130578;1256;114734;-72
2023/10/03 09:24:11;;;;;;;14.20;7.80;;;;;;;25.41;62.04;100073.61;130620;1260;114844;-72
2023/10/03 09:27:22;;;;;;;16.40;7.50;;;;;;;25.46;61.64;100064.29;130387;1257;119089;-78
2023/10/03 09:30:24;;;;;;;16.00;7.00;;;;;;;25.52;61.80;100056.42;130841;1256;115166;-83
2023/10/03 09:33:27;;;;;;;12.90;7.20;;;;;;;25.58;60.98;100059.44;130773;1256;117586;-77
2023/10/03 09:36:29;;;;;;;16.50;7.10;;;;;;;25.63;60.32;100057.33;130685;1258;114746;-79
2023/10/03 09:39:39;;;;;;;12.10;7.70;;;;;;;25.68;59.64;100049.98;130610;1258;115173;-73
2023/10/03 09:42:48;;;;;;;23.30;7.70;;;;;;;25.73;59.72;100042.10;130512;1257;114750;-73
2023/10/03 09:45:56;;;;;;;11.40;6.80;;;;;;;25.78;58.81;100036.77;130535;1260;119922;-77
2023/10/03 09:49:08;;;;;;;14.90;8.10;;;;;;;25.81;58.41;100042.23;130306;1260;115186;-75
2023/10/03 09:52:22;;;;;;;13.80;7.60;;;;;;;25.86;58.30;100043.45;130384;1260;114869;-78
2023/10/03 09:55:27;;;;;;;11.30;7.30;;;;;;;25.89;57.63;100032.66;130861;1259;114756;-73
2023/10/03 09:58:32;;;;;;;14.00;7.40;;;;;;;25.93;57.91;100030.06;130403;1259;114853;-77
2023/10/03 10:01:35;;;;;;;17.70;7.30;;;;;;;25.97;57.57;100033.55;130361;1267;119106;-71
2023/10/03 10:04:37;;;;;;;11.80;7.10;;;;;;;26.01;57.00;100031.45;130464;1275;114837;-73
2023/10/03 10:08:06;;;;;;;13.60;7.80;;;;;;;26.06;57.06;100026.48;130620;1276;114760;-71
2023/10/03 10:11:09;;;;;;;13.70;8.00;;;;;;;26.13;56.39;100017.84;130512;1268;114782;-77
2023/10/03 10:14:16;;;;;;;11.10;6.20;;;;;;;26.16;55.81;100011.98;130471;1259;114789;-69
2023/10/03 10:17:19;;;;;;;9.90;6.30;;;;;;;26.20;55.80;100010.06;130650;1275;120069;-72
2023/10/03 10:20:33;;;;;;;18.20;7.20;;;;;;;26.26;55.40;100009.67;130518;1257;115051;-71
2023/10/03 10:23:36;;;;;;;13.10;6.70;;;;;;;26.32;55.03;100006.34;130492;1272;114734;-69
2023/10/03 10:26:39;;;;;;;12.00;6.90;;;;;;;26.37;54.78;100000.29;130306;1271;114867;-71
2023/10/03 10:29:58;;;;;;;11.70;7.40;;;;;;;26.43;54.91;99999.25;130483;1260;114763;-72
2023/10/03 10:33:18;;;;;;;13.50;8.30;;;;;;;26.47;54.27;99994.00;130411;1256;120167;-74
2023/10/03 10:36:21;;;;;;;13.40;6.70;;;;;;;26.50;54.47;99989.16;130496;1257;115174;-71
2023/10/03 10:40:09;;;;;;;8.20;5.40;;;;;;;26.54;54.07;99985.33;130464;1270;114845;-67
2023/10/03 10:43:16;;;;;;;10.10;6.30;;;;;;;26.57;53.33;99983.27;130230;1270;115646;-69
2023/10/03 10:46:52;;;;;;;12.20;6.00;;;;;;;26.58;53.23;99980.56;130356;1264;114926;-70
2023/10/03 10:49:56;;;;;;;14.00;7.00;;;;;;;26.61;53.08;99974.13;129572;1267;119556;-69
2023/10/03 10:53:02;;;;;;;11.20;6.60;;;;;;;26.62;53.08;99969.17;129607;1262;114853;-69
2023/10/03 10:56:09;;;;;;;12.10;6.40;;;;;;;26.65;53.01;99969.92;129592;1266;114912;-69
2023/10/03 10:59:12;;;;;;;12.70;6.50;;;;;;;26.70;52.96;99963.14;129844;1266;115022;-71
2023/10/03 11:02:17;;;;;;;13.10;7.00;;;;;;;26.74;52.86;99953.98;129784;1274;115051;-67
2023/10/03 11:05:19;;;;;;;14.70;7.30;;;;;;;26.85;52.39;99944.83;129738;1265;120229;-70
2023/10/03 11:08:21;;;;;;;10.90;7.20;;;;;;;26.99;52.20;99935.79;129598;1276;114905;-69
2023/10/03 11:11:41;;;;;;;9.90;6.90;;;;;;;27.12;52.13;99936.34;129727;1264;114955;-70
2023/10/03 11:14:47;;;;;;;14.40;7.10;;;;;;;27.25;51.74;99932.41;129668;1281;115038;-71
2023/10/03 11:17:49;;;;;;;12.10;7.40;;;;;;;27.33;51.91;99926.61;129495;1271;115110;-71
2023/10/03 11:20:52;;;;;;;12.80;7.60;;;;;;;27.39;51.56;99918.21;129566;1274;114930;-71
2023/10/03 11:24:14;;;;;;;11.10;6.70;;;;;;;27.42;51.28;99910.57;129580;1283;114915;-72
2023/10/03 11:27:24;;;;;;;14.80;7.70;;;;;;;27.42;51.39;99911.98;130153;1275;115359;-71
2023/10/03 11:30:27;;;;;;;17.40;8.70;;;;;;;27.43;51.04;99911.27;130544;1257;114833;-70
2023/10/03 11:33:46;;;;;;;9.40;4.60;;;;;;;27.41;50.73;99907.11;130462;1257;114729;-70
2023/10/03 11:36:49;;;;;;;14.60;8.20;;;;;;;27.38;50.51;99901.91;130366;1257;114843;-70
2023/10/03 11:39:51;;;;;;;12.50;7.70;;;;;;;27.30;50.52;99894.10;130379;1266;120112;-71
2023/10/03 11:43:04;;;;;;;13.40;7.70;;;;;;;27.23;50.55;99888.89;130501;1257;114788;-70
2023/10/03 11:46:10;;;;;;;17.00;7.30;;;;;;;27.13;50.36;99885.92;130324;1258;114871;-73
2023/10/03 11:49:15;;;;;;;9.20;5.80;;;;;;;27.06;50.72;99876.20;130228;1260;114812;-71
2023/10/03 11:52:18;;;;;;;13.70;8.00;;;;;;;27.03;50.63;99872.60;130143;1257;115023;-71
2023/10/03 11:55:20;;;;;;;14.50;7.10;;;;;;;26.99;50.58;99872.65;130478;1266;114769;-72
2023/10/03 11:58:22;;;;;;;13.30;6.40;;;;;;;26.94;50.66;99867.60;130474;1260;114750;-72
2023/10/03 12:01:24;;;;;;;10.70;5.60;;;;;;;26.88;51.11;99861.59;130509;1256;114717;-72
2023/10/03 12:04:26;;;;;;;13.00;6.70;;;;;;;26.82;50.71;99858.09;130123;1261;114837;-74
2023/10/03 12:07:28;;;;;;;10.90;6.40;;;;;;;26.77;50.67;99855.13;130378;1276;115189;-73
2023/10/03 12:10:31;;;;;;;9.90;5.30;;;;;;;26.72;50.63;99845.67;130624;1257;114697;-73
2023/10/03 12:13:34;;;;;;;12.00;6.70;;;;;;;26.71;50.62;99839.20;130612;1254;114856;-72
2023/10/03 12:16:40;;;;;;;13.50;6.50;;;;;;;26.70;50.88;99842.23;130489;1276;114852;-72
2023/10/03 12:19:42;;;;;;;12.80;6.90;;;;;;;26.71;50.85;99842.46;130373;1261;115195;-72
2023/10/03 12:22:49;;;;;;;13.20;7.00;;;;;;;26.74;50.48;99841.39;130456;1257;114795;-72
2023/10/03 12:25:51;;;;;;;11.80;5.40;;;;;;;26.76;50.61;99837.73;130470;1266;114734;-72
2023/10/03 12:28:55;;;;;;;4.00;2.50;;;;;;;26.78;50.72;99839.61;130436;1270;114817;-72
2023/10/03 12:31:57;;;;;;;16.20;7.20;;;;;;;26.76;50.54;99840.90;130738;1254;114806;-72
2023/10/03 12:34:59;;;;;;;10.20;6.30;;;;;;;26.76;50.34;99834.73;130793;1259;114903;-73
2023/10/03 12:38:01;;;;;;;10.00;6.40;;;;;;;26.74;50.37;99827.73;130406;1275;114788;-72
2023/10/03 12:41:05;;;;;;;13.00;7.00;;;;;;;26.74;50.28;99830.02;130380;1258;114799;-71
2023/10/03 12:44:07;;;;;;;11.10;6.80;;;;;;;26.71;50.18;99830.91;130531;1266;114674;-72
2023/10/03 12:47:09;;;;;;;14.70;6.50;;;;;;;26.68;50.27;99824.04;130399;1275;114830;-70
2023/10/03 12:50:11;;;;;;;9.20;6.40;;;;;;;26.65;50.22;99827.97;130483;1256;114738;-71
2023/10/03 12:53:13;;;;;;;11.40;6.30;;;;;;;26.59;50.14;99827.77;130391;1258;119449;-70
2023/10/03 12:56:15;;;;;;;16.00;7.00;;;;;;;26.56;50.24;99818.81;130371;1255;114716;-71
2023/10/03 12:59:18;;;;;;;11.20;6.90;;;;;;;26.52;49.92;99818.98;130378;1254;114805;-69
2023/10/03 13:02:21;;;;;;;10.30;5.40;;;;;;;26.50;49.99;99810.97;130345;1257;114761;-70
2023/10/03 13:05:24;;;;;;;15.60;6.40;;;;;;;26.51;49.74;99811.02;130629;1257;114696;-69
2023/10/03 13:08:28;;;;;;;10.00;5.20;;;;;;;26.54;49.97;99808.81;130294;1257;114801;-69
2023/10/03 13:11:30;;;;;;;7.80;4.00;;;;;;;26.60;50.03;99808.67;130322;1276;114709;-68
2023/10/03 13:14:32;;;;;;;8.70;4.50;;;;;;;26.64;50.10;99806.27;130452;1273;114755;-69
2023/10/03 13:17:36;;;;;;;11.40;6.20;;;;;;;26.69;50.25;99809.29;130310;1273;114778;-69
2023/10/03 13:20:42;;;;;;;13.70;8.20;;;;;;;26.75;50.07;99805.64;130343;1267;115171;-70
2023/10/03 13:23:46;;;;;;;14.20;6.60;;;;;;;26.80;49.87;99801.98;130459;1257;114823;-69
2023/10/03 13:26:48;;;;;;;9.90;6.60;;;;;;;26.82;49.62;99796.55;130474;1254;120219;-70
2023/10/03 13:29:51;;;;;;;18.10;9.60;;;;;;;26.83;49.24;99801.15;130580;1275;115308;-68
2023/10/03 13:32:55;;;;;;;10.50;6.50;;;;;;;26.85;48.76;99802.80;130161;1258;115283;-70
2023/10/03 13:35:57;;;;;;;11.40;5.20;;;;;;;26.84;48.51;99805.50;130480;1255;114807;-69
2023/10/03 13:38:59;;;;;;;16.90;8.80;;;;;;;26.84;48.57;99806.39;130419;1253;115411;-70
2023/10/03 13:42:02;;;;;;;16.30;8.20;;;;;;;26.85;48.59;99805.04;130385;1257;115099;-69
2023/10/03 13:45:05;;;;;;;12.10;6.60;;;;;;;26.88;48.20;99805.58;130461;1257;114727;-69
2023/10/03 13:48:07;;;;;;;4.30;3.10;;;;;;;26.93;47.81;99809.90;130617;1257;114824;-71